createdAt,value
2018-02-18T00:01:42.290Z,21.23
2018-02-18T00:06:46.897Z,21.03
2018-02-18T00:11:58.997Z,20.03
2018-02-18T00:17:04.257Z,23.63
2018-02-18T00:22:09.166Z,21.77
2018-02-18T00:27:13.392Z,22.10
2018-02-18T00:32:22.505Z,20.83
2018-02-18T00:37:28.277Z,19.33
2018-02-18T00:42:39.914Z,19.70
2018-02-18T00:47:44.797Z,22.77
2018-02-18T00:52:49.702Z,23.63
2018-02-18T00:57:54.549Z,24.33
2018-02-18T01:03:03.075Z,27.23
2018-02-18T01:08:06.893Z,27.67
2018-02-18T01:13:14.424Z,26.87
2018-02-18T01:18:19.078Z,31.10
2018-02-18T01:23:27.458Z,22.97
2018-02-18T01:28:32.313Z,19.63
2018-02-18T01:33:38.090Z,18.90
2018-02-18T01:38:41.706Z,20.23
2018-02-18T01:43:56.108Z,21.67
2018-02-18T01:49:01.461Z,18.97
2018-02-18T01:54:07.585Z,17.73
2018-02-18T01:59:11.821Z,18.13
2018-02-18T02:04:22.847Z,19.07
2018-02-18T02:09:28.034Z,19.13
2018-02-18T02:14:34.265Z,24.00
2018-02-18T02:19:39.539Z,21.10
2018-02-18T02:25:03.136Z,19.30
2018-02-18T02:30:08.035Z,19.97
2018-02-18T02:35:15.733Z,21.80
2018-02-18T02:40:21.558Z,24.53
2018-02-18T02:45:37.366Z,25.73
2018-02-18T02:50:41.753Z,25.63
2018-02-18T02:55:46.837Z,24.03
2018-02-18T03:00:50.805Z,23.50
2018-02-18T03:05:58.317Z,23.87
2018-02-18T03:11:02.744Z,24.57
2018-02-18T03:16:10.608Z,24.20
2018-02-18T03:21:16.410Z,26.97
2018-02-18T03:26:20.458Z,27.30
2018-02-18T03:31:27.230Z,23.97
2018-02-18T03:36:31.850Z,23.00
2018-02-18T03:41:40.701Z,24.67
2018-02-18T03:46:45.577Z,30.50
2018-02-18T03:51:53.313Z,30.60
2018-02-18T03:56:57.697Z,27.00
2018-02-18T04:02:03.218Z,28.87
2018-02-18T04:07:08.826Z,26.00
2018-02-18T04:12:17.013Z,25.97
2018-02-18T04:17:20.886Z,25.77
2018-02-18T04:22:28.169Z,24.47
2018-02-18T04:27:33.248Z,22.43
2018-02-18T04:32:40.705Z,33.67
2018-02-18T04:37:45.609Z,24.73
2018-02-18T04:42:56.641Z,22.57
2018-02-18T04:48:01.605Z,22.40
2018-02-18T04:53:09.769Z,23.67
2018-02-18T04:58:13.398Z,25.20
2018-02-18T05:03:36.216Z,23.13
2018-02-18T05:08:43.414Z,31.13
2018-02-18T05:13:54.596Z,24.43
2018-02-18T05:19:00.009Z,21.00
2018-02-18T05:24:05.094Z,25.37
2018-02-18T05:29:10.194Z,25.93
2018-02-18T05:34:28.209Z,28.73
2018-02-18T05:39:32.868Z,30.80
2018-02-18T05:44:41.113Z,31.50
2018-02-18T05:49:46.169Z,36.33
2018-02-18T05:54:55.179Z,31.57
2018-02-18T05:59:59.526Z,32.93
2018-02-18T06:05:14.317Z,34.93
2018-02-18T06:10:19.068Z,34.63
2018-02-18T06:15:23.750Z,34.57
2018-02-18T06:20:28.354Z,37.90
2018-02-18T06:25:34.411Z,41.33
2018-02-18T06:30:38.893Z,35.13
2018-02-18T06:35:55.080Z,39.77
2018-02-18T06:40:59.720Z,36.33
2018-02-18T06:46:03.879Z,29.13
2018-02-18T06:51:14.136Z,26.00
2018-02-18T06:56:20.431Z,26.63
2018-02-18T07:01:29.406Z,24.57
2018-02-18T07:06:34.246Z,25.13
2018-02-18T07:11:42.469Z,21.67
2018-02-18T07:16:47.855Z,22.77
2018-02-18T07:21:56.998Z,24.40
2018-02-18T07:27:02.058Z,27.10
2018-02-18T07:32:11.753Z,22.60
2018-02-18T07:37:16.561Z,18.83
2018-02-18T07:42:27.445Z,18.77
2018-02-18T07:47:33.617Z,15.17
2018-02-18T07:52:45.342Z,15.30
2018-02-18T07:57:50.902Z,15.17
2018-02-18T08:02:58.269Z,25.93
2018-02-18T08:08:01.671Z,24.97
2018-02-18T08:13:13.749Z,25.47
2018-02-18T08:18:18.727Z,13.93
2018-02-18T08:23:27.897Z,16.03
2018-02-18T08:28:33.560Z,17.57
2018-02-18T08:33:43.372Z,22.47
2018-02-18T08:38:46.961Z,22.77
2018-02-18T08:43:55.545Z,16.93
2018-02-18T08:48:59.078Z,13.93
2018-02-18T08:54:06.862Z,12.63
2018-02-18T08:59:10.414Z,14.90
2018-02-18T09:04:24.494Z,13.20
2018-02-18T09:09:29.149Z,12.23
2018-02-18T09:14:39.746Z,10.53
2018-02-18T09:19:44.567Z,16.53
2018-02-18T09:24:53.437Z,16.37
2018-02-18T09:29:57.916Z,12.17
2018-02-18T09:35:03.380Z,14.53
2018-02-18T09:40:09.014Z,16.07
2018-02-18T09:45:13.416Z,13.47
2018-02-18T09:50:17.334Z,13.33
2018-02-18T09:55:21.665Z,14.77
2018-02-18T10:00:27.095Z,14.17
2018-02-18T10:05:34.796Z,14.17
2018-02-18T10:10:39.511Z,14.53
2018-02-18T10:15:44.182Z,13.93
2018-02-18T10:20:53.616Z,13.67
2018-02-18T10:26:03.664Z,11.93
2018-02-18T10:31:08.518Z,13.97
2018-02-18T10:36:13.538Z,23.77
2018-02-18T10:41:18.611Z,13.77
2018-02-18T10:46:23.491Z,14.10
2018-02-18T10:51:32.251Z,14.13
2018-02-18T10:56:37.118Z,15.13
2018-02-18T11:01:46.103Z,14.40
2018-02-18T11:06:50.457Z,11.17
2018-02-18T11:11:55.233Z,13.13
2018-02-18T11:16:58.750Z,13.43
2018-02-18T11:22:07.485Z,13.70
2018-02-18T11:27:12.373Z,15.37
2018-02-18T11:32:20.821Z,15.07
2018-02-18T11:37:25.307Z,16.03
2018-02-18T11:42:33.367Z,15.00
2018-02-18T11:47:38.641Z,15.33
2018-02-18T11:52:47.388Z,17.03
2018-02-18T11:57:53.017Z,13.47
2018-02-18T12:02:58.016Z,12.50
2018-02-18T12:08:02.594Z,13.40
2018-02-18T12:13:08.686Z,13.30
2018-02-18T12:18:13.466Z,17.30
2018-02-18T12:23:19.078Z,25.77
2018-02-18T12:28:24.204Z,15.70
2018-02-18T12:33:34.067Z,15.50
2018-02-18T12:38:39.669Z,16.47
2018-02-18T12:43:47.893Z,15.67
2018-02-18T12:48:52.558Z,14.07
2018-02-18T12:54:07.404Z,20.43
2018-02-18T12:59:12.794Z,14.73
2018-02-18T13:04:21.561Z,13.97
2018-02-18T13:09:26.197Z,14.13
2018-02-18T13:14:36.606Z,13.70
2018-02-18T13:19:41.396Z,17.93
2018-02-18T13:24:47.182Z,15.00
2018-02-18T13:29:51.422Z,20.70
2018-02-18T13:34:56.566Z,16.50
2018-02-18T13:40:04.591Z,19.93
2018-02-18T13:45:09.451Z,19.53
2018-02-18T13:50:17.929Z,15.90
2018-02-18T13:55:23.075Z,17.10
2018-02-18T14:00:29.842Z,22.07
2018-02-18T14:05:35.278Z,19.00
2018-02-18T14:10:41.953Z,19.37
2018-02-18T14:15:47.398Z,17.23
2018-02-18T14:20:52.849Z,16.50
2018-02-18T14:25:58.305Z,18.27
2018-02-18T14:31:03.677Z,23.90
2018-02-18T14:36:08.450Z,18.27
2018-02-18T14:41:30.410Z,15.47
2018-02-18T14:52:25.974Z,30.70
2018-02-18T14:57:35.354Z,27.13
2018-02-18T15:02:40.002Z,14.00
2018-02-18T15:07:45.506Z,19.73
2018-02-18T15:12:53.446Z,33.47
2018-02-18T15:17:57.264Z,21.70
2018-02-18T15:23:05.907Z,25.10
2018-02-18T15:28:11.178Z,24.67
2018-02-18T15:33:16.714Z,16.90
2018-02-18T15:38:21.700Z,21.07
2018-02-18T15:43:31.731Z,25.50
2018-02-18T15:48:37.184Z,22.90
2018-02-18T15:53:41.333Z,27.63
2018-02-18T16:28:45.748Z,25.60
2018-02-18T16:33:52.285Z,21.97
2018-02-18T16:38:58.249Z,21.67
2018-02-18T16:44:10.545Z,27.07
2018-02-18T16:49:15.636Z,25.03
2018-02-18T16:54:20.903Z,29.50
2018-02-18T16:59:25.616Z,41.53
2018-02-18T17:04:30.219Z,24.57
2018-02-18T17:09:38.216Z,20.93
2018-02-18T17:14:43.471Z,26.77
2018-02-18T17:19:52.763Z,19.73
2018-02-18T17:24:58.233Z,36.27
2018-02-18T17:30:03.935Z,35.13
2018-02-18T17:35:08.834Z,26.80
2018-02-18T17:40:14.474Z,32.60
2018-02-18T17:45:19.090Z,26.30
2018-02-18T17:50:25.058Z,23.73
2018-02-18T17:55:30.448Z,26.60
2018-02-18T18:00:41.485Z,69.13
2018-02-18T18:05:46.097Z,33.07
2018-02-18T18:10:50.763Z,29.10
2018-02-18T18:15:56.164Z,28.77
2018-02-18T18:21:00.341Z,17.30
2018-02-18T18:26:05.152Z,23.70
2018-02-18T18:31:14.467Z,24.47
2018-02-18T18:36:19.566Z,21.90
2018-02-18T18:41:34.398Z,24.27
2018-02-18T18:46:38.619Z,20.80
2018-02-18T18:51:44.930Z,19.97
2018-02-18T19:14:45.523Z,21.80
2018-02-18T19:19:53.640Z,23.60
2018-02-18T19:24:58.678Z,23.63
2018-02-18T19:30:07.276Z,22.87
2018-02-18T19:35:14.734Z,20.73
2018-02-18T19:40:19.415Z,21.17
2018-02-18T19:45:24.247Z,21.43
2018-02-18T19:50:30.470Z,20.80
2018-02-18T19:55:35.615Z,20.97
2018-02-18T20:00:41.762Z,21.67
2018-02-18T20:05:46.683Z,23.60
2018-02-18T20:10:55.170Z,20.60
2018-02-18T20:16:00.046Z,21.77
2018-02-18T20:21:08.583Z,25.93
2018-02-18T20:26:12.460Z,28.17
2018-02-18T20:31:21.184Z,26.10
2018-02-18T20:36:26.612Z,30.83
2018-02-18T20:41:37.530Z,27.53
2018-02-18T20:46:42.023Z,29.73
2018-02-18T20:51:51.085Z,28.60
2018-02-18T20:56:55.854Z,22.47
2018-02-18T21:02:03.645Z,23.07
2018-02-18T21:07:07.502Z,22.03
2018-02-18T21:12:15.014Z,22.53
2018-02-18T21:17:21.134Z,22.30
2018-02-18T21:22:29.634Z,17.23
2018-02-18T21:27:34.926Z,16.03
2018-02-18T21:32:44.605Z,15.10
2018-02-18T21:37:49.870Z,22.60
2018-02-18T21:43:00.543Z,17.90
2018-02-18T21:48:04.902Z,18.10
2018-02-18T21:53:13.103Z,19.47
2018-02-18T21:58:17.745Z,16.97
2018-02-18T22:03:24.261Z,23.43
2018-02-18T22:08:28.799Z,17.27
2018-02-18T22:13:33.587Z,19.53
2018-02-18T22:18:45.001Z,17.50
2018-02-18T22:23:50.027Z,18.97
2018-02-18T22:28:57.955Z,20.70
2018-02-18T22:34:03.014Z,20.37
2018-02-18T22:39:11.005Z,18.77
2018-02-18T22:44:16.942Z,18.83
2018-02-18T22:49:22.069Z,18.30
2018-02-18T22:54:27.229Z,17.17
2018-02-18T22:59:35.458Z,20.73
2018-02-18T23:04:40.525Z,22.67
2018-02-18T23:09:49.900Z,23.10
2018-02-18T23:14:54.506Z,15.80
2018-02-18T23:20:03.265Z,16.70
2018-02-18T23:25:08.157Z,15.83
2018-02-18T23:30:16.120Z,19.80
2018-02-18T23:35:20.532Z,18.93
2018-02-18T23:40:25.481Z,15.03
2018-02-18T23:45:30.056Z,14.43
2018-02-18T23:50:36.135Z,14.63
2018-02-18T23:55:41.460Z,14.03
